• Join FlightAware (Why Join?)
  • Login
  • US Flag 
09:28AM EST


 

Airport Tracker/Info


-or-


 

Live Flight TrackerFlight Track Log ✈ QFA1100 ✈ 03-Jul-2013 ✈ YPPH / PER - YNWN / ZNE

Flight Track Log - Related Links

Times and Time Zones

All times are in EDT time to prevent confusion due to time zone crossing. See the QFA1100 flight status page for this flight to view local times or setup timezone preferences in your user account.

Time Position Orientation Groundspeed Altitude Reporting Facility
EDT Latitude Longitude Course Direction KTS MPH feet Rate Location/Type
01:57AM -31.9320 115.9600 North  Level FlightAware
01:57AM -31.9310 115.9600 360° North 1 1  Level FlightAware
02:00AM -31.7138 116.0668 23° Northeast  Level Estimated
02:01AM -31.6142 116.1156 23° Northeast  Level Estimated
02:01AM -31.9310 115.9610 23° Northeast 7 8  Level FlightAware
02:01AM -31.9320 115.9620 140° Southeast 11 13 60 Level FlightAware
02:02AM -31.9310 115.9640 59° Northeast 11 13 60 Level FlightAware
02:02AM -31.9300 115.9650 40° Northeast 12 14 60 Level FlightAware
02:03AM -31.9290 115.9660 40° Northeast 12 14 120 Level FlightAware
02:03AM -31.9290 115.9670 90° East 1 1 120 Level FlightAware
02:04AM -31.9290 115.9680 90° East 8 9 180 Level FlightAware
02:05AM -31.9320 115.9670 196° South 72 83 300 Level FlightAware
02:05AM -31.9400 115.9650 192° South 125 144 600 Level FlightAware
02:05AM -31.9580 115.9600 193° South 154 177 400 1,740 Climbing FlightAware
02:06AM -31.9800 115.9540 195° South 163 188 1,600 2,160 Climbing FlightAware
02:06AM -31.9970 115.9500 191° South 194 223 2,200 2,700 Climbing FlightAware
02:07AM -32.0320 115.9670 158° South 218 251 4,300 2,820 Climbing FlightAware
02:07AM -32.0390 115.9850 115° Southeast 248 285 4,800 1,320 Climbing FlightAware
02:07AM -32.0490 116.0290 105° East 304 350 5,300 1,020 Climbing FlightAware
02:08AM -32.0530 116.0460 106° East 324 373 5,500 1,200 Climbing FlightAware
02:08AM -32.0660 116.1010 106° East 368 423 6,100 2,100 Climbing FlightAware
02:09AM -32.0800 116.1600 106° East 377 434 7,600 2,820 Climbing FlightAware
02:09AM -32.0660 116.2450 79° East 389 448 9,500 2,700 Climbing FlightAware
02:10AM -32.0540 116.2610 48° Northeast 385 443 10,000 2,580 Climbing FlightAware
02:10AM -31.9960 116.3320 46° Northeast 405 466 11,900 2,520 Climbing FlightAware
02:11AM -31.9449 116.3958 46° Northeast 411 473 13,600 2,520 Climbing Aus ATC (RADAR)
02:11AM -31.9420 116.3990 46° Northeast 427 491 13,600 2,460 Level FlightAware
02:12AM -31.8920 116.4620 47° Northeast 438 504 15,100 2,160 Climbing FlightAware
02:12AM -31.8240 116.5470 47° Northeast 460 529 16,700 2,040 Climbing FlightAware
02:13AM -31.7640 116.6210 46° Northeast 473 544 18,100 2,340 Climbing FlightAware
02:14AM -31.7010 116.6990 46° Northeast 474 545 20,000 2,460 Climbing FlightAware
02:14AM -31.6452 116.7680 46° Northeast 469 540 21,500 2,220 Climbing Aus ATC (RADAR)
02:14AM -31.6360 116.7790 46° Northeast 477 549 21,600 1,860 Climbing FlightAware
02:15AM -31.5910 116.8320 46° Northeast 468 539 22,600 1,740 Climbing Aus ATC (RADAR)
02:15AM -31.5760 116.8430 46° Northeast 474 545 22,700 1,200 Climbing FlightAware
02:16AM -31.4840 116.8940 25° Northeast 466 536 23,700 1,320 Climbing FlightAware
02:16AM -31.4030 116.9310 21° North 482 555 24,600 1,500 Climbing FlightAware
02:17AM -31.3290 116.9650 21° North 484 557 25,600 1,380 Climbing FlightAware
02:18AM -31.2320 117.0100 22° Northeast 486 559 26,500 1,380 Climbing FlightAware
02:19AM -31.1470 117.0490 21° North 482 555 27,600 1,620 Climbing FlightAware
02:19AM -31.0740 117.0830 22° Northeast 487 560 28,600 1,500 Climbing FlightAware
02:20AM -30.9907 117.1211 22° Northeast 485 558 29,500 1,140 Climbing Aus ATC (RADAR)
02:20AM -30.9870 117.1220 22° Northeast 482 555 29,400 780 Descending FlightAware
02:21AM -30.8910 117.1650 21° North 488 562 30,100 900 Climbing FlightAware
02:21AM -30.8060 117.2040 22° Northeast 499 574 30,700 960 Climbing FlightAware
02:22AM -30.7170 117.2450 22° Northeast 501 577 31,400 960 Climbing FlightAware
02:23AM -30.6190 117.2900 22° Northeast 504 580 32,100 960 Climbing FlightAware
02:23AM -30.5320 117.3290 21° North 505 581 32,800 1,140 Climbing FlightAware
02:24AM -30.4631 117.3613 21° North 505 581 33,500 1,020 Climbing Aus ATC (RADAR)
02:24AM -30.4440 117.3690 21° North 504 580 33,500 1,080 Level FlightAware
02:25AM -30.3680 117.4040 22° Northeast 502 578 34,300 1,200 Climbing FlightAware
02:25AM -30.2820 117.4430 21° North 485 558 35,000 480 Climbing FlightAware
02:26AM -30.1960 117.4810 21° North 483 556 35,000  Level FlightAware
02:27AM -30.1130 117.5190 22° Northeast 483 556 35,000 60 Level FlightAware
02:27AM -30.0363 117.5528 22° Northeast 490 564 35,100  Climbing Aus ATC (RADAR)
02:27AM -30.0190 117.5610 22° Northeast 482 555 35,000 -180 Descending FlightAware
02:28AM -29.9440 117.5940 21° North 480 552 35,000 120 Level FlightAware
02:29AM -29.8682 117.6287 21° North 488 562 35,200  Climbing Aus ATC (RADAR)
02:29AM -29.8500 117.6360 21° North 486 559 35,000 -300 Descending FlightAware
02:29AM -29.7650 117.6750 22° Northeast 483 556 35,000  Level FlightAware
02:30AM -29.6720 117.7160 21° North 482 555 35,000  Level FlightAware
02:31AM -29.5980 117.7480 21° North 482 555 35,000  Level FlightAware
02:31AM -29.5050 117.7900 21° North 483 556 35,000  Level FlightAware
02:32AM -29.4110 117.8310 21° North 482 555 35,000  Level FlightAware
02:33AM -29.3280 117.8680 21° North 480 552 35,000 120 Level FlightAware
02:34AM -29.2434 117.9049 21° North 479 551 35,200  Climbing Aus ATC (RADAR)
02:34AM -29.2340 117.9090 21° North 469 540 35,000 -300 Descending FlightAware
02:34AM -29.1540 117.9450 21° North 466 536 35,000  Level FlightAware
02:35AM -29.0720 117.9810 21° North 464 534 35,000  Level FlightAware
02:36AM -28.9910 118.0160 21° North 469 540 35,000 60 Level FlightAware
02:37AM -28.8549 118.0711 21° North 469 540 35,200  Climbing Aus ATC (RADAR)
02:37AM -28.8490 118.0790 21° North 468 539 35,000  Descending FlightAware
02:37AM -28.7547 118.1171 21° North 468 539 35,200  Climbing Aus ATC (RADAR)
02:37AM -28.7870 118.1060 21° North 468 539 35,000 -360 Descending FlightAware
02:38AM -28.7250 118.1330 21° North 468 539 35,000 60 Level FlightAware
02:39AM -28.5833 118.1908 21° North 465 535 35,100  Climbing Aus ATC (RADAR)
02:39AM -28.6220 118.1780 21° North 468 539 35,000 -180 Descending FlightAware
02:40AM -28.5600 118.2050 21° North 468 539 35,000  Level FlightAware
02:40AM -28.4980 118.2320 21° North 468 539 35,000  Level FlightAware
02:41AM -28.4160 118.2680 21° North 468 539 35,000  Level FlightAware
02:42AM -28.3520 118.2960 21° North 468 539 35,000  Level FlightAware
02:43AM -28.2490 118.3410 21° North 468 539 35,000  Level FlightAware
02:43AM -28.1910 118.3660 21° North 468 539 35,000  Level FlightAware
02:44AM -28.1070 118.4030 21° North 468 539 35,000  Level FlightAware
02:45AM -28.0170 118.4410 20° North 468 539 35,000  Level FlightAware
02:45AM -27.8363 118.5201 201° Southwest 33,000  Descending Aus ATC (Calculated)
02:46AM -27.9380 118.4760 20° North 468 539 35,000 -120 Climbing FlightAware
02:46AM -27.7691 118.5491 21° North 33,000 -240 Descending Aus ATC (Calculated)
02:48AM -27.5895 118.6264 21° North  Level FlightAware Approximate
02:49AM -27.4760 118.6751 21° North  Level FlightAware Approximate
02:50AM -27.3624 118.7237 21° North  Level FlightAware Approximate
02:50AM -27.2022 118.7922 21° North 33,000  Level Aus ATC (Calculated)
02:52AM -27.0697 118.8486 21° North  Level FlightAware Approximate
02:53AM -26.9561 118.8968 21° North  Level FlightAware Approximate
02:54AM -26.8425 118.9450 21° North  Level FlightAware Approximate
02:54AM -26.8469 118.9437 21° North 31,500  Level Aus ATC (Calculated)
02:56AM -26.6286 119.0344 20° North  Level FlightAware Approximate
02:57AM -26.7425 118.9872 200° South  Level FlightAware Approximate
02:58AM -26.7271 118.9939 21° North  Level FlightAware Approximate
02:59AM -26.6135 119.0421 21° North  Level FlightAware Approximate
02:59AM -26.2468 119.1975 21° North 31,500  Level Aus ATC (Calculated)
03:01AM -26.0290 119.2889 21° North  Level FlightAware Approximate
03:01AM -25.9991 119.3014 20° North 31,500  Level Aus ATC (Calculated)
03:02AM -25.9153 119.3365 21° North  Level FlightAware Approximate
03:02AM -25.7089 119.4212 21° North 437 503 31,100  Level Aus ATC (RADAR)
03:03AM -25.5952 119.4724 22° Northeast 466 536 31,100  Level Aus ATC (RADAR)
03:04AM -25.4664 119.5237 20° North 458 527 31,100  Level Aus ATC (RADAR)
03:05AM -25.3544 119.5714 21° North 464 534 31,100  Level Aus ATC (RADAR)
03:06AM -25.2543 119.6132 21° North 463 533 31,100  Level Aus ATC (RADAR)
03:07AM -25.1768 119.6438 20° North 452 520 31,100  Level Aus ATC (RADAR)
03:07AM -25.0963 119.6779 21° North 459 528 31,100  Level Aus ATC (RADAR)
03:08AM -25.0278 119.7056 20° North 455 524 31,100  Level Aus ATC (RADAR)
03:09AM -24.9074 119.7488 18° North 459 528 31,100  Level Aus ATC (RADAR)
03:10AM -24.8316 119.7551 North 473 544 31,100 -180 Level Aus ATC (RADAR)
03:10AM -24.7302 119.7555 360° North 444 511 30,900 -2,100 Descending Aus ATC (RADAR)
03:11AM -24.6137 119.7605 North 448 516 27,500 -3,360 Descending Aus ATC (RADAR)
03:12AM -24.5257 119.7639 North 462 532 25,600 -2,880 Descending Aus ATC (RADAR)
03:13AM -24.4308 119.7667 North 452 520 23,500 -2,820 Descending Aus ATC (RADAR)
03:13AM -24.3569 119.7691 North 448 516 21,900 -2,640 Descending Aus ATC (RADAR)
03:14AM -24.2332 119.7742 North 437 503 19,400 -2,580 Descending Aus ATC (RADAR)
03:15AM -24.1337 119.7771 North 424 488 17,200 -2,580 Descending Aus ATC (RADAR)
03:16AM -24.0313 119.7987 11° North 406 467 14,900 -2,520 Descending Aus ATC (RADAR)
03:19AM -23.7844 119.8071 359° North 2,000 -3,960 Descending Aus ATC (Calculated)
03:21AM -23.6387 119.8055 359° North  Level FlightAware Approximate
03:22AM -23.5173 119.8041 359° North  Level FlightAware Approximate
03:22AM -23.6028 119.8050 221° Southwest 2,000  Level Aus ATC (Calculated)
03:22AM -23.6028 119.8050 359° North 2,000  Level Aus ATC (Calculated)
03:23AM -23.4178 119.8028 359° North  Level Estimated
03:24AM -23.4550 119.8034 359° North  Level FlightAware Approximate
03:25AM -23.4178 119.8027 355° North  Level FlightAware Approximate
03:26AM -23.4178 119.8027 355° North  Level FlightAware Approximate
03:27AM -23.4178 119.8028 355° North  Level Estimated
03:28AM -23.4178 119.8028 355° North  Level Estimated
03:29AM -23.4178 119.8028 355° North  Level Estimated
03:30AM -23.4178 119.8028 355° North  Level Estimated
03:31AM -23.4178 119.8028 355° North  Level Estimated
03:32AM -23.4178 119.8028 355° North  Level Estimated